sensor_id;sensor_type;location;lat;lon;timestamp;pressure;altitude;pressure_sealevel;temperature;humidity
63700;BME280;49845;47.130;142.766;2023-03-14T00:00:33;100669.41;;;0.22;66.15
63700;BME280;49845;47.130;142.766;2023-03-14T00:03:07;100676.44;;;0.28;66.86
63700;BME280;49845;47.130;142.766;2023-03-14T00:05:38;100673.91;;;0.29;65.94
63700;BME280;49845;47.130;142.766;2023-03-14T00:08:10;100693.69;;;0.32;66.28
63700;BME280;49845;47.130;142.766;2023-03-14T00:10:41;100689.81;;;0.45;66.67
63700;BME280;49845;47.130;142.766;2023-03-14T00:13:13;100686.44;;;0.46;66.27
63700;BME280;49845;47.130;142.766;2023-03-14T00:15:44;100694.19;;;0.47;65.96
63700;BME280;49845;47.130;142.766;2023-03-14T00:18:17;100691.72;;;0.50;66.92
63700;BME280;49845;47.130;142.766;2023-03-14T00:20:49;100648.75;;;0.19;65.72
63700;BME280;49845;47.130;142.766;2023-03-14T00:23:20;100668.59;;;0.23;66.65
63700;BME280;49845;47.130;142.766;2023-03-14T00:25:52;100724.63;;;0.62;66.58
63700;BME280;49845;47.130;142.766;2023-03-14T00:28:23;100723.19;;;0.70;66.60
63700;BME280;49845;47.130;142.766;2023-03-14T00:30:55;100732.19;;;0.84;66.19
63700;BME280;49845;47.130;142.766;2023-03-14T00:33:29;100715.69;;;1.05;65.21
63700;BME280;49845;47.130;142.766;2023-03-14T00:36:02;100720.25;;;1.15;65.48
63700;BME280;49845;47.130;142.766;2023-03-14T00:38:34;100735.81;;;1.20;64.79
63700;BME280;49845;47.130;142.766;2023-03-14T00:41:08;100728.34;;;1.27;64.83
63700;BME280;49845;47.130;142.766;2023-03-14T00:43:39;100738.34;;;1.18;64.45
63700;BME280;49845;47.130;142.766;2023-03-14T00:46:11;100732.00;;;1.07;65.12
63700;BME280;49845;47.130;142.766;2023-03-14T00:48:45;100730.91;;;0.99;65.40
63700;BME280;49845;47.130;142.766;2023-03-14T00:51:17;100741.22;;;0.99;66.28
63700;BME280;49845;47.130;142.766;2023-03-14T00:53:49;100750.66;;;1.00;65.29
63700;BME280;49845;47.130;142.766;2023-03-14T00:56:23;100744.78;;;1.04;66.06
63700;BME280;49845;47.130;142.766;2023-03-14T00:58:55;100767.16;;;1.05;65.65
63700;BME280;49845;47.130;142.766;2023-03-14T01:01:26;100732.47;;;0.94;65.98
63700;BME280;49845;47.130;142.766;2023-03-14T01:03:59;100760.81;;;1.22;66.60
63700;BME280;49845;47.130;142.766;2023-03-14T01:06:31;100768.03;;;1.36;65.36
63700;BME280;49845;47.130;142.766;2023-03-14T01:09:02;100771.53;;;1.38;65.44
63700;BME280;49845;47.130;142.766;2023-03-14T01:11:35;100777.34;;;1.32;65.75
63700;BME280;49845;47.130;142.766;2023-03-14T01:14:07;100797.28;;;1.38;64.03
63700;BME280;49845;47.130;142.766;2023-03-14T01:16:39;100798.19;;;1.40;64.35
63700;BME280;49845;47.130;142.766;2023-03-14T01:19:12;100809.84;;;1.57;62.78
63700;BME280;49845;47.130;142.766;2023-03-14T01:21:44;100799.31;;;1.48;62.83
63700;BME280;49845;47.130;142.766;2023-03-14T01:24:16;100812.41;;;1.56;63.49
63700;BME280;49845;47.130;142.766;2023-03-14T01:26:47;100817.13;;;1.42;63.00
63700;BME280;49845;47.130;142.766;2023-03-14T01:29:20;100833.06;;;1.28;64.50
63700;BME280;49845;47.130;142.766;2023-03-14T01:31:52;100839.22;;;1.34;64.45
63700;BME280;49845;47.130;142.766;2023-03-14T01:34:26;100832.88;;;1.51;64.05
63700;BME280;49845;47.130;142.766;2023-03-14T01:36:57;100835.88;;;1.66;63.93
63700;BME280;49845;47.130;142.766;2023-03-14T01:39:29;100836.41;;;1.85;63.83
63700;BME280;49845;47.130;142.766;2023-03-14T01:42:01;100845.22;;;1.93;63.72
63700;BME280;49845;47.130;142.766;2023-03-14T01:44:51;100838.41;;;1.95;63.30
63700;BME280;49845;47.130;142.766;2023-03-14T01:47:24;100855.63;;;1.96;63.01
63700;BME280;49845;47.130;142.766;2023-03-14T01:49:59;100846.47;;;2.39;62.82
63700;BME280;49845;47.130;142.766;2023-03-14T01:52:36;100851.91;;;2.50;62.54
63700;BME280;49845;47.130;142.766;2023-03-14T01:55:13;100854.59;;;2.54;61.01
63700;BME280;49845;47.130;142.766;2023-03-14T01:57:50;100852.31;;;2.67;61.42
63700;BME280;49845;47.130;142.766;2023-03-14T02:00:25;100857.88;;;2.82;60.85
63700;BME280;49845;47.130;142.766;2023-03-14T02:03:00;100851.63;;;3.09;59.29
63700;BME280;49845;47.130;142.766;2023-03-14T02:05:35;100854.91;;;3.01;57.58
63700;BME280;49845;47.130;142.766;2023-03-14T02:08:12;100855.00;;;3.05;58.40
63700;BME280;49845;47.130;142.766;2023-03-14T02:10:46;100859.13;;;2.98;57.94
63700;BME280;49845;47.130;142.766;2023-03-14T02:13:19;100860.56;;;2.87;56.84
63700;BME280;49845;47.130;142.766;2023-03-14T02:15:52;100876.53;;;2.72;56.52
63700;BME280;49845;47.130;142.766;2023-03-14T02:18:24;100885.06;;;2.68;56.79
63700;BME280;49845;47.130;142.766;2023-03-14T02:21:02;100881.94;;;2.81;56.73
63700;BME280;49845;47.130;142.766;2023-03-14T02:23:40;100883.91;;;2.91;56.99
63700;BME280;49845;47.130;142.766;2023-03-14T02:26:19;100890.59;;;2.83;56.30
63700;BME280;49845;47.130;142.766;2023-03-14T02:28:54;100894.22;;;2.91;56.81
63700;BME280;49845;47.130;142.766;2023-03-14T02:31:25;100887.34;;;2.90;56.66
63700;BME280;49845;47.130;142.766;2023-03-14T02:33:58;100882.16;;;3.27;57.12
63700;BME280;49845;47.130;142.766;2023-03-14T02:36:31;100881.81;;;3.49;56.33
63700;BME280;49845;47.130;142.766;2023-03-14T02:39:08;100881.66;;;3.41;55.77
63700;BME280;49845;47.130;142.766;2023-03-14T02:41:43;100871.94;;;3.30;55.93
63700;BME280;49845;47.130;142.766;2023-03-14T02:44:20;100885.56;;;3.24;54.88
63700;BME280;49845;47.130;142.766;2023-03-14T02:46:51;100891.63;;;3.26;54.50
63700;BME280;49845;47.130;142.766;2023-03-14T02:49:24;100883.47;;;3.45;53.64
63700;BME280;49845;47.130;142.766;2023-03-14T02:51:58;100872.34;;;3.48;53.01
63700;BME280;49845;47.130;142.766;2023-03-14T02:54:29;100873.25;;;3.52;51.80
63700;BME280;49845;47.130;142.766;2023-03-14T02:57:01;100780.59;;;2.88;53.32
63700;BME280;49845;47.130;142.766;2023-03-14T02:59:35;100854.03;;;3.37;52.70
63700;BME280;49845;47.130;142.766;2023-03-14T03:02:07;100860.34;;;3.14;52.37
63700;BME280;49845;47.130;142.766;2023-03-14T03:04:39;100870.56;;;3.08;52.42
63700;BME280;49845;47.130;142.766;2023-03-14T03:07:10;100870.31;;;2.98;53.18
63700;BME280;49845;47.130;142.766;2023-03-14T03:09:42;100885.25;;;2.77;53.90
63700;BME280;49845;47.130;142.766;2023-03-14T03:12:15;100888.56;;;2.71;54.75
63700;BME280;49845;47.130;142.766;2023-03-14T03:14:48;100887.09;;;2.81;55.26
63700;BME280;49845;47.130;142.766;2023-03-14T03:17:19;100892.03;;;2.72;55.08
63700;BME280;49845;47.130;142.766;2023-03-14T03:19:51;100900.72;;;2.75;55.26
63700;BME280;49845;47.130;142.766;2023-03-14T03:22:23;100895.84;;;2.86;55.57
63700;BME280;49845;47.130;142.766;2023-03-14T03:24:54;100781.00;;;2.34;55.62
63700;BME280;49845;47.130;142.766;2023-03-14T03:27:26;100893.09;;;3.15;54.61
63700;BME280;49845;47.130;142.766;2023-03-14T03:29:59;100864.06;;;2.89;53.00
63700;BME280;49845;47.130;142.766;2023-03-14T03:32:31;100889.06;;;2.91;53.37
63700;BME280;49845;47.130;142.766;2023-03-14T03:35:03;100890.97;;;2.98;54.06
63700;BME280;49845;47.130;142.766;2023-03-14T03:37:35;100897.88;;;2.99;55.02
63700;BME280;49845;47.130;142.766;2023-03-14T03:40:09;100902.03;;;3.29;54.90
63700;BME280;49845;47.130;142.766;2023-03-14T03:42:40;100892.66;;;3.34;54.04
63700;BME280;49845;47.130;142.766;2023-03-14T03:45:14;100888.66;;;3.09;52.79
63700;BME280;49845;47.130;142.766;2023-03-14T03:47:46;100902.53;;;3.13;53.71
63700;BME280;49845;47.130;142.766;2023-03-14T03:50:18;100900.13;;;3.22;51.08
63700;BME280;49845;47.130;142.766;2023-03-14T03:52:50;100889.31;;;3.00;51.13
63700;BME280;49845;47.130;142.766;2023-03-14T03:55:22;100892.63;;;2.96;53.19
63700;BME280;49845;47.130;142.766;2023-03-14T03:57:54;100894.53;;;3.03;54.18
63700;BME280;49845;47.130;142.766;2023-03-14T04:00:28;100898.72;;;2.98;53.37
63700;BME280;49845;47.130;142.766;2023-03-14T04:03:00;100893.31;;;2.89;53.39
63700;BME280;49845;47.130;142.766;2023-03-14T04:05:31;100896.00;;;2.92;53.70
63700;BME280;49845;47.130;142.766;2023-03-14T04:08:04;100897.72;;;2.93;53.90
63700;BME280;49845;47.130;142.766;2023-03-14T04:10:36;100898.03;;;3.06;54.21
63700;BME280;49845;47.130;142.766;2023-03-14T04:13:08;100904.78;;;3.00;52.74
63700;BME280;49845;47.130;142.766;2023-03-14T04:15:41;100907.69;;;3.13;54.00
63700;BME280;49845;47.130;142.766;2023-03-14T04:18:13;100902.88;;;3.28;53.73
63700;BME280;49845;47.130;142.766;2023-03-14T04:20:44;100902.25;;;3.38;54.49
63700;BME280;49845;47.130;142.766;2023-03-14T04:23:16;100904.84;;;3.38;53.17
63700;BME280;49845;47.130;142.766;2023-03-14T04:25:48;100907.91;;;3.60;53.19
63700;BME280;49845;47.130;142.766;2023-03-14T04:28:20;100907.63;;;3.48;52.53
63700;BME280;49845;47.130;142.766;2023-03-14T04:30:54;100882.69;;;3.12;52.11
63700;BME280;49845;47.130;142.766;2023-03-14T04:33:25;100922.50;;;3.20;52.25
63700;BME280;49845;47.130;142.766;2023-03-14T04:35:56;100921.41;;;3.12;52.88
63700;BME280;49845;47.130;142.766;2023-03-14T04:38:28;100936.16;;;3.16;53.35
63700;BME280;49845;47.130;142.766;2023-03-14T04:41:00;100922.13;;;3.05;53.19
63700;BME280;49845;47.130;142.766;2023-03-14T04:43:31;100925.69;;;3.10;52.59
63700;BME280;49845;47.130;142.766;2023-03-14T04:46:05;100930.84;;;3.10;53.20
63700;BME280;49845;47.130;142.766;2023-03-14T04:48:37;100932.72;;;3.17;53.13
63700;BME280;49845;47.130;142.766;2023-03-14T04:51:09;100928.41;;;3.16;52.49
63700;BME280;49845;47.130;142.766;2023-03-14T04:53:40;100938.75;;;3.16;52.96
63700;BME280;49845;47.130;142.766;2023-03-14T04:56:12;100940.63;;;3.23;50.80
63700;BME280;49845;47.130;142.766;2023-03-14T04:58:43;100935.28;;;3.52;51.41
63700;BME280;49845;47.130;142.766;2023-03-14T05:01:16;100948.63;;;3.70;51.31
63700;BME280;49845;47.130;142.766;2023-03-14T05:03:48;100943.06;;;3.53;51.05
63700;BME280;49845;47.130;142.766;2023-03-14T05:06:19;100939.72;;;3.57;50.25
63700;BME280;49845;47.130;142.766;2023-03-14T05:08:51;100956.50;;;3.76;50.51
63700;BME280;49845;47.130;142.766;2023-03-14T05:11:23;100962.63;;;3.80;51.05
63700;BME280;49845;47.130;142.766;2023-03-14T05:13:54;100954.56;;;4.05;51.26
63700;BME280;49845;47.130;142.766;2023-03-14T05:16:28;100960.00;;;4.19;51.51
63700;BME280;49845;47.130;142.766;2023-03-14T05:19:00;100909.88;;;4.13;51.19
63700;BME280;49845;47.130;142.766;2023-03-14T05:21:32;100963.19;;;4.47;49.66
63700;BME280;49845;47.130;142.766;2023-03-14T05:24:04;100968.53;;;4.56;49.74
63700;BME280;49845;47.130;142.766;2023-03-14T05:26:36;100973.53;;;4.47;49.15
63700;BME280;49845;47.130;142.766;2023-03-14T05:29:08;100978.63;;;4.44;49.54
63700;BME280;49845;47.130;142.766;2023-03-14T05:31:41;100977.34;;;4.23;48.65
63700;BME280;49845;47.130;142.766;2023-03-14T05:34:13;100978.88;;;4.14;48.43
63700;BME280;49845;47.130;142.766;2023-03-14T05:36:44;100993.25;;;4.01;47.94
63700;BME280;49845;47.130;142.766;2023-03-14T05:39:16;101006.75;;;3.87;48.61
63700;BME280;49845;47.130;142.766;2023-03-14T05:41:48;101009.44;;;3.56;48.50
63700;BME280;49845;47.130;142.766;2023-03-14T05:44:20;101019.84;;;3.59;49.18
63700;BME280;49845;47.130;142.766;2023-03-14T05:46:54;101000.28;;;3.32;48.59
63700;BME280;49845;47.130;142.766;2023-03-14T05:49:25;101027.91;;;3.35;49.00
63700;BME280;49845;47.130;142.766;2023-03-14T05:51:57;101021.44;;;3.17;49.14
63700;BME280;49845;47.130;142.766;2023-03-14T05:54:28;101030.56;;;3.05;49.13
63700;BME280;49845;47.130;142.766;2023-03-14T05:57:00;101024.81;;;2.83;48.80
63700;BME280;49845;47.130;142.766;2023-03-14T05:59:31;101033.59;;;2.59;48.84
63700;BME280;49845;47.130;142.766;2023-03-14T06:02:05;101042.91;;;2.54;50.18
63700;BME280;49845;47.130;142.766;2023-03-14T06:04:36;101043.13;;;2.61;49.48
63700;BME280;49845;47.130;142.766;2023-03-14T06:07:08;101045.81;;;2.65;49.61
63700;BME280;49845;47.130;142.766;2023-03-14T06:09:39;101055.44;;;2.71;50.20
63700;BME280;49845;47.130;142.766;2023-03-14T06:12:10;101058.31;;;2.51;49.31
63700;BME280;49845;47.130;142.766;2023-03-14T06:14:42;101064.81;;;2.38;50.38
63700;BME280;49845;47.130;142.766;2023-03-14T06:17:15;101068.03;;;2.30;50.90
63700;BME280;49845;47.130;142.766;2023-03-14T06:19:47;101029.31;;;2.01;51.54
63700;BME280;49845;47.130;142.766;2023-03-14T06:22:19;101070.41;;;2.24;51.75
63700;BME280;49845;47.130;142.766;2023-03-14T06:24:50;101064.16;;;2.15;52.03
63700;BME280;49845;47.130;142.766;2023-03-14T06:27:22;101067.94;;;2.00;51.29
63700;BME280;49845;47.130;142.766;2023-03-14T06:29:54;101068.44;;;1.88;51.26
63700;BME280;49845;47.130;142.766;2023-03-14T06:32:28;101075.03;;;1.80;51.10
63700;BME280;49845;47.130;142.766;2023-03-14T06:35:00;101084.09;;;1.94;51.90
63700;BME280;49845;47.130;142.766;2023-03-14T06:37:31;101085.34;;;2.07;52.30
63700;BME280;49845;47.130;142.766;2023-03-14T06:40:04;101089.31;;;1.97;51.47
63700;BME280;49845;47.130;142.766;2023-03-14T06:42:37;101092.75;;;1.96;52.26
63700;BME280;49845;47.130;142.766;2023-03-14T06:45:09;101101.34;;;1.97;51.66
63700;BME280;49845;47.130;142.766;2023-03-14T06:47:43;101093.59;;;1.95;51.84
63700;BME280;49845;47.130;142.766;2023-03-14T06:50:17;101098.00;;;1.99;51.49
63700;BME280;49845;47.130;142.766;2023-03-14T06:52:49;101101.97;;;1.89;51.86
63700;BME280;49845;47.130;142.766;2023-03-14T06:55:20;101093.47;;;1.92;51.28
63700;BME280;49845;47.130;142.766;2023-03-14T06:57:52;101104.63;;;1.91;50.97
63700;BME280;49845;47.130;142.766;2023-03-14T07:00:26;101099.38;;;1.88;50.79
63700;BME280;49845;47.130;142.766;2023-03-14T07:03:07;101105.94;;;1.80;50.91
63700;BME280;49845;47.130;142.766;2023-03-14T07:05:40;101111.78;;;1.74;49.80
63700;BME280;49845;47.130;142.766;2023-03-14T07:08:10;101112.66;;;1.75;50.06
63700;BME280;49845;47.130;142.766;2023-03-14T07:10:41;101110.81;;;1.70;50.22
63700;BME280;49845;47.130;142.766;2023-03-14T07:13:11;101094.09;;;1.58;50.10
63700;BME280;49845;47.130;142.766;2023-03-14T07:15:42;101117.72;;;1.71;50.30
63700;BME280;49845;47.130;142.766;2023-03-14T07:18:14;101115.56;;;1.58;50.79
63700;BME280;49845;47.130;142.766;2023-03-14T07:20:45;101127.59;;;1.59;51.86
63700;BME280;49845;47.130;142.766;2023-03-14T07:23:18;101134.41;;;1.57;51.78
63700;BME280;49845;47.130;142.766;2023-03-14T07:25:48;101133.34;;;1.50;52.10
63700;BME280;49845;47.130;142.766;2023-03-14T07:28:19;101123.56;;;1.42;52.21
63700;BME280;49845;47.130;142.766;2023-03-14T07:30:51;101128.53;;;1.36;52.33
63700;BME280;49845;47.130;142.766;2023-03-14T07:33:23;101128.00;;;1.20;52.76
63700;BME280;49845;47.130;142.766;2023-03-14T07:35:54;101144.97;;;1.15;52.21
63700;BME280;49845;47.130;142.766;2023-03-14T07:38:25;101150.56;;;1.03;52.37
63700;BME280;49845;47.130;142.766;2023-03-14T07:40:58;101161.38;;;0.95;51.98
63700;BME280;49845;47.130;142.766;2023-03-14T07:43:30;101169.81;;;0.91;51.93
63700;BME280;49845;47.130;142.766;2023-03-14T07:46:00;101174.72;;;0.84;52.61
63700;BME280;49845;47.130;142.766;2023-03-14T07:48:33;101188.53;;;0.86;53.75
63700;BME280;49845;47.130;142.766;2023-03-14T07:51:03;101190.97;;;0.83;53.66
63700;BME280;49845;47.130;142.766;2023-03-14T07:53:34;101188.31;;;0.80;54.21
63700;BME280;49845;47.130;142.766;2023-03-14T07:56:06;101192.41;;;0.75;54.07
63700;BME280;49845;47.130;142.766;2023-03-14T07:58:37;101192.97;;;0.68;54.75
63700;BME280;49845;47.130;142.766;2023-03-14T08:01:08;101202.91;;;0.59;54.54
63700;BME280;49845;47.130;142.766;2023-03-14T08:03:40;101204.19;;;0.48;54.44
63700;BME280;49845;47.130;142.766;2023-03-14T08:06:14;101213.41;;;0.42;54.45
63700;BME280;49845;47.130;142.766;2023-03-14T08:08:48;101219.13;;;0.35;54.89
63700;BME280;49845;47.130;142.766;2023-03-14T08:11:23;101232.53;;;0.28;54.86
63700;BME280;49845;47.130;142.766;2023-03-14T08:13:54;101225.28;;;0.18;54.89
63700;BME280;49845;47.130;142.766;2023-03-14T08:16:25;101235.16;;;0.09;55.04
63700;BME280;49845;47.130;142.766;2023-03-14T08:18:57;101248.56;;;0.02;55.35
63700;BME280;49845;47.130;142.766;2023-03-14T08:21:28;101207.78;;;-0.31;55.50
63700;BME280;49845;47.130;142.766;2023-03-14T08:23:58;101248.03;;;-0.11;55.64
63700;BME280;49845;47.130;142.766;2023-03-14T08:26:29;101188.72;;;-0.57;55.81
63700;BME280;49845;47.130;142.766;2023-03-14T08:29:00;101265.69;;;-0.18;56.12
63700;BME280;49845;47.130;142.766;2023-03-14T08:31:35;101274.97;;;-0.22;56.60
63700;BME280;49845;47.130;142.766;2023-03-14T08:34:08;101157.91;;;-0.96;56.42
63700;BME280;49845;47.130;142.766;2023-03-14T08:36:38;101277.66;;;-0.38;57.43
63700;BME280;49845;47.130;142.766;2023-03-14T08:39:10;101282.69;;;-0.41;57.72
63700;BME280;49845;47.130;142.766;2023-03-14T08:41:41;101285.66;;;-0.52;57.71
63700;BME280;49845;47.130;142.766;2023-03-14T08:44:12;101280.38;;;-0.55;58.15
63700;BME280;49845;47.130;142.766;2023-03-14T08:46:47;101283.88;;;-0.53;58.47
63700;BME280;49845;47.130;142.766;2023-03-14T08:49:22;101244.28;;;-0.77;59.58
63700;BME280;49845;47.130;142.766;2023-03-14T08:51:52;101281.69;;;-0.63;59.27
63700;BME280;49845;47.130;142.766;2023-03-14T08:54:23;101290.09;;;-0.67;59.79
63700;BME280;49845;47.130;142.766;2023-03-14T08:56:53;101289.34;;;-0.64;59.93
63700;BME280;49845;47.130;142.766;2023-03-14T08:59:24;101302.72;;;-0.72;59.05
63700;BME280;49845;47.130;142.766;2023-03-14T09:01:55;101303.44;;;-0.74;59.20
63700;BME280;49845;47.130;142.766;2023-03-14T09:04:27;101313.41;;;-0.80;59.14
63700;BME280;49845;47.130;142.766;2023-03-14T09:07:00;101311.22;;;-0.91;59.55
63700;BME280;49845;47.130;142.766;2023-03-14T09:09:31;101325.03;;;-0.89;60.13
63700;BME280;49845;47.130;142.766;2023-03-14T09:12:04;101315.78;;;-1.03;59.68
63700;BME280;49845;47.130;142.766;2023-03-14T09:14:39;101331.03;;;-1.06;60.06
63700;BME280;49845;47.130;142.766;2023-03-14T09:17:10;101339.84;;;-1.01;59.41
63700;BME280;49845;47.130;142.766;2023-03-14T09:19:45;101339.84;;;-1.01;59.35
63700;BME280;49845;47.130;142.766;2023-03-14T09:22:15;101335.66;;;-0.99;58.76
63700;BME280;49845;47.130;142.766;2023-03-14T09:24:49;101331.34;;;-1.00;58.98
63700;BME280;49845;47.130;142.766;2023-03-14T09:27:20;101352.16;;;-0.94;59.09
63700;BME280;49845;47.130;142.766;2023-03-14T09:29:56;101350.09;;;-1.01;58.68
63700;BME280;49845;47.130;142.766;2023-03-14T09:32:26;101362.84;;;-1.02;58.57
63700;BME280;49845;47.130;142.766;2023-03-14T09:34:59;101344.69;;;-1.07;58.93
63700;BME280;49845;47.130;142.766;2023-03-14T09:37:32;101374.41;;;-0.93;58.70
63700;BME280;49845;47.130;142.766;2023-03-14T09:40:04;101381.00;;;-0.98;58.65
63700;BME280;49845;47.130;142.766;2023-03-14T09:42:40;101387.63;;;-1.03;58.62
63700;BME280;49845;47.130;142.766;2023-03-14T09:45:17;101377.06;;;-1.09;58.91
63700;BME280;49845;47.130;142.766;2023-03-14T09:47:53;101396.13;;;-1.04;58.99
63700;BME280;49845;47.130;142.766;2023-03-14T09:50:36;101382.06;;;-1.12;58.52
63700;BME280;49845;47.130;142.766;2023-03-14T09:53:12;101397.97;;;-1.01;59.16
63700;BME280;49845;47.130;142.766;2023-03-14T09:55:50;101394.06;;;-1.11;58.32
63700;BME280;49845;47.130;142.766;2023-03-14T09:58:23;101420.59;;;-1.11;58.37
63700;BME280;49845;47.130;142.766;2023-03-14T10:00:56;101412.66;;;-1.15;58.67
63700;BME280;49845;47.130;142.766;2023-03-14T10:03:33;101409.69;;;-1.41;58.12
63700;BME280;49845;47.130;142.766;2023-03-14T10:06:15;101397.97;;;-1.36;59.05
63700;BME280;49845;47.130;142.766;2023-03-14T10:08:46;101440.22;;;-1.11;58.38
63700;BME280;49845;47.130;142.766;2023-03-14T10:11:17;101404.06;;;-1.34;58.59
63700;BME280;49845;47.130;142.766;2023-03-14T10:13:49;101444.41;;;-1.13;58.35
63700;BME280;49845;47.130;142.766;2023-03-14T10:16:28;101397.50;;;-1.45;58.38
63700;BME280;49845;47.130;142.766;2023-03-14T10:19:06;101451.63;;;-1.22;58.06
63700;BME280;49845;47.130;142.766;2023-03-14T10:21:42;101454.03;;;-1.25;58.33
63700;BME280;49845;47.130;142.766;2023-03-14T10:24:22;101458.81;;;-1.15;58.61
63700;BME280;49845;47.130;142.766;2023-03-14T10:26:57;101464.13;;;-1.12;58.79
63700;BME280;49845;47.130;142.766;2023-03-14T10:29:33;101460.03;;;-1.09;58.40
63700;BME280;49845;47.130;142.766;2023-03-14T10:32:05;101467.47;;;-1.13;58.86
63700;BME280;49845;47.130;142.766;2023-03-14T10:34:38;101474.53;;;-1.09;58.80
63700;BME280;49845;47.130;142.766;2023-03-14T10:37:22;101482.09;;;-1.12;58.46
63700;BME280;49845;47.130;142.766;2023-03-14T10:40:01;101483.44;;;-1.19;58.54
63700;BME280;49845;47.130;142.766;2023-03-14T10:42:39;101488.44;;;-1.22;58.36
63700;BME280;49845;47.130;142.766;2023-03-14T10:45:28;101486.88;;;-1.18;57.77
63700;BME280;49845;47.130;142.766;2023-03-14T10:48:16;101476.34;;;-1.24;58.02
63700;BME280;49845;47.130;142.766;2023-03-14T10:50:56;101392.59;;;-1.75;58.10
63700;BME280;49845;47.130;142.766;2023-03-14T10:53:42;101415.50;;;-1.61;58.27
63700;BME280;49845;47.130;142.766;2023-03-14T10:56:19;101425.09;;;-1.57;58.42
63700;BME280;49845;47.130;142.766;2023-03-14T10:58:59;101512.06;;;-1.11;58.42
63700;BME280;49845;47.130;142.766;2023-03-14T11:02:07;101520.72;;;-1.09;58.73
63700;BME280;49845;47.130;142.766;2023-03-14T11:05:15;101509.00;;;-1.04;58.93
63700;BME280;49845;47.130;142.766;2023-03-14T11:07:52;101512.34;;;-1.05;58.38
63700;BME280;49845;47.130;142.766;2023-03-14T11:10:31;101464.63;;;-1.36;57.75
63700;BME280;49845;47.130;142.766;2023-03-14T11:13:23;101519.25;;;-1.04;58.27
63700;BME280;49845;47.130;142.766;2023-03-14T11:16:20;101529.38;;;-1.07;58.51
63700;BME280;49845;47.130;142.766;2023-03-14T11:19:08;101527.28;;;-1.14;58.24
63700;BME280;49845;47.130;142.766;2023-03-14T11:21:48;101503.75;;;-1.40;57.73
63700;BME280;49845;47.130;142.766;2023-03-14T11:24:41;101445.59;;;-1.74;58.32
63700;BME280;49845;47.130;142.766;2023-03-14T11:27:22;101521.19;;;-1.33;58.45
63700;BME280;49845;47.130;142.766;2023-03-14T11:30:05;101483.56;;;-1.66;58.22
63700;BME280;49845;47.130;142.766;2023-03-14T11:32:55;101537.94;;;-1.23;58.50
63700;BME280;49845;47.130;142.766;2023-03-14T11:35:35;101490.44;;;-1.65;58.60
63700;BME280;49845;47.130;142.766;2023-03-14T11:38:15;101557.59;;;-1.23;58.94
63700;BME280;49845;47.130;142.766;2023-03-14T11:41:16;101547.75;;;-1.32;58.91
63700;BME280;49845;47.130;142.766;2023-03-14T11:43:55;101552.78;;;-1.34;59.28
63700;BME280;49845;47.130;142.766;2023-03-14T11:46:29;101544.69;;;-1.41;59.13
63700;BME280;49845;47.130;142.766;2023-03-14T11:49:06;101565.59;;;-1.34;59.52
63700;BME280;49845;47.130;142.766;2023-03-14T11:51:56;101448.16;;;-1.90;60.03
63700;BME280;49845;47.130;142.766;2023-03-14T11:54:39;101555.19;;;-1.37;59.88
63700;BME280;49845;47.130;142.766;2023-03-14T11:57:16;101570.56;;;-1.37;59.81
63700;BME280;49845;47.130;142.766;2023-03-14T11:59:52;101573.78;;;-1.41;60.05
63700;BME280;49845;47.130;142.766;2023-03-14T12:02:48;101578.28;;;-1.37;59.96
63700;BME280;49845;47.130;142.766;2023-03-14T12:05:34;101571.84;;;-1.45;59.73
63700;BME280;49845;47.130;142.766;2023-03-14T12:11:19;101572.44;;;-1.65;60.39
63700;BME280;49845;47.130;142.766;2023-03-14T12:13:55;101584.03;;;-1.57;59.94
63700;BME280;49845;47.130;142.766;2023-03-14T12:16:37;101568.41;;;-1.62;60.09
63700;BME280;49845;47.130;142.766;2023-03-14T12:19:27;101570.06;;;-1.62;59.38
63700;BME280;49845;47.130;142.766;2023-03-14T12:25:04;101583.22;;;-1.56;60.16
63700;BME280;49845;47.130;142.766;2023-03-14T12:30:42;101604.94;;;-1.49;60.13
63700;BME280;49845;47.130;142.766;2023-03-14T12:33:30;101606.44;;;-1.53;61.60
63700;BME280;49845;47.130;142.766;2023-03-14T12:39:35;101613.63;;;-1.93;62.26
63700;BME280;49845;47.130;142.766;2023-03-14T12:42:11;101604.53;;;-2.03;62.64
63700;BME280;49845;47.130;142.766;2023-03-14T12:44:52;101621.34;;;-2.08;62.70
63700;BME280;49845;47.130;142.766;2023-03-14T12:50:37;101596.81;;;-2.20;63.99
63700;BME280;49845;47.130;142.766;2023-03-14T12:56:55;101622.66;;;-2.15;64.15
63700;BME280;49845;47.130;142.766;2023-03-14T12:59:46;101604.50;;;-2.20;64.37
63700;BME280;49845;47.130;142.766;2023-03-14T13:02:26;101612.84;;;-2.07;65.21
63700;BME280;49845;47.130;142.766;2023-03-14T13:05:22;101616.28;;;-1.92;65.60
63700;BME280;49845;47.130;142.766;2023-03-14T13:08:09;101624.66;;;-1.80;65.56
63700;BME280;49845;47.130;142.766;2023-03-14T13:10:53;101624.09;;;-1.74;64.74
63700;BME280;49845;47.130;142.766;2023-03-14T13:13:35;101635.75;;;-1.64;64.65
63700;BME280;49845;47.130;142.766;2023-03-14T13:16:14;101631.59;;;-1.46;63.97
63700;BME280;49845;47.130;142.766;2023-03-14T13:18:50;101628.91;;;-1.33;63.32
63700;BME280;49845;47.130;142.766;2023-03-14T13:21:35;101538.72;;;-1.73;63.31
63700;BME280;49845;47.130;142.766;2023-03-14T13:24:21;101519.25;;;-1.86;62.51
63700;BME280;49845;47.130;142.766;2023-03-14T13:27:14;101576.34;;;-1.41;62.58
63700;BME280;49845;47.130;142.766;2023-03-14T13:29:52;101618.19;;;-1.09;61.98
63700;BME280;49845;47.130;142.766;2023-03-14T13:32:28;101607.94;;;-1.09;61.77